CHG2 weather

Harbour Grace Airport
Harbour Grace, Newfoundland and Labrador, Canada

Public forecast

Using degrees Celsius for public forecast. Weather courtesy of forecast.io.

METAR (pilot weather report)

Closest report is St. John's International Airport, 20.7 nm (38.3 km) E. Retrieved 2019/07/19 15:00 UTC (30 minutes ago):

CYYT 191500Z 27028G36KT 15SM FEW030 SCT130 21/10 A2963 RMK SC2AC1 SLP035 DENSITY ALT 1600FT

TAF (pilot weather forecast)

Closest forecast is St. John's International Airport, 20.7 nm (38.3 km) E. Retrieved 2019/07/19 12:42 UTC (3 hours ago):

TAF CYYT 191138Z 1912/2012 27018G28KT P6SM FEW040 BECMG 1922/1924 26012KT FM200200 26012KT P6SM BKN180 RMK NXT FCST BY 191800Z